Time;durP1;ratioP1;P1;durP2;ratioP2;P2;SDS_P1;SDS_P2;PMS_P1;PMS_P2;Temp;Humidity;BMP_temperature;BMP_pressure;BME280_temperature;BME280_humidity;BME280_pressure;Samples;Min_cycle;Max_cycle;Signal;HPM_P1;HPM_P2
2022/12/27 00:02:23;;;;;;;23.42;10.38;;;;;;;7.86;86.79;98441.22;1641581;83;25749;-65
2022/12/27 00:04:49;;;;;;;18.80;8.55;;;;;;;7.89;86.58;98441.98;1664715;83;25733;-66
2022/12/27 00:07:15;;;;;;;26.68;10.25;;;;;;;7.90;86.55;98445.77;1687582;83;27315;-64
2022/12/27 00:09:42;;;;;;;21.12;9.15;;;;;;;7.92;86.54;98452.29;1664354;83;25752;-66
2022/12/27 00:12:08;;;;;;;20.72;8.00;;;;;;;7.89;86.57;98438.67;1687547;83;25628;-66
2022/12/27 00:14:34;;;;;;;26.30;9.03;;;;;;;7.90;86.72;98446.31;1694296;83;25611;-66
2022/12/27 00:17:00;;;;;;;17.37;7.90;;;;;;;7.91;86.73;98443.28;1694593;83;25628;-66
2022/12/27 00:19:26;;;;;;;24.77;10.48;;;;;;;7.94;86.87;98450.62;1670102;83;27423;-66
2022/12/27 00:21:52;;;;;;;27.42;11.40;;;;;;;7.93;86.97;98448.44;1694378;83;25780;-67
2022/12/27 00:24:19;;;;;;;20.43;8.50;;;;;;;7.94;87.07;98441.08;1671471;83;25665;-66
2022/12/27 00:26:45;;;;;;;21.73;9.08;;;;;;;7.97;86.88;98441.27;1694553;83;25640;-66
2022/12/27 00:29:11;;;;;;;10.95;5.53;;;;;;;8.01;86.69;98427.83;1694660;83;25421;-67
2022/12/27 00:31:37;;;;;;;27.30;10.55;;;;;;;8.03;86.45;98418.22;1669971;83;27325;-67
2022/12/27 00:34:06;;;;;;;43.30;15.45;;;;;;;8.06;86.42;98411.34;1665793;83;25568;-66
2022/12/27 00:36:34;;;;;;;19.87;9.30;;;;;;;8.08;86.32;98401.48;1694705;83;25708;-66
2022/12/27 00:39:01;;;;;;;22.07;8.53;;;;;;;8.10;86.23;98411.01;1694289;83;25936;-65
2022/12/27 00:41:27;;;;;;;16.95;8.18;;;;;;;8.10;86.22;98408.28;1694422;83;25713;-64
2022/12/27 00:43:53;;;;;;;22.40;9.55;;;;;;;8.11;86.34;98406.34;1694332;83;27674;-64
2022/12/27 00:46:20;;;;;;;77.00;30.10;;;;;;;8.11;86.33;98418.63;1694658;83;25747;-64
2022/12/27 00:48:46;;;;;;;16.80;7.35;;;;;;;8.10;86.22;98418.38;1694297;83;25464;-64
2022/12/27 00:51:16;;;;;;;17.40;7.35;;;;;;;8.07;86.15;98426.62;1721265;82;25426;-66
2022/12/27 00:53:43;;;;;;;16.12;8.13;;;;;;;8.07;86.01;98417.63;1694353;83;25691;-65
2022/12/27 00:56:16;;;;;;;9.48;5.10;;;;;;;8.03;86.07;98426.41;1694652;83;27392;-67
2022/12/27 00:58:43;;;;;;;12.23;6.22;;;;;;;8.05;86.02;98428.84;1695602;83;25930;-66
2022/12/27 01:01:17;;;;;;;19.20;8.13;;;;;;;8.04;85.93;98419.83;1694796;83;25787;-65
2022/12/27 01:03:44;;;;;;;18.23;9.08;;;;;;;8.08;85.91;98432.33;1720761;83;26268;-66
2022/12/27 01:06:13;;;;;;;13.75;6.40;;;;;;;8.10;85.90;98427.39;1694405;83;25647;-66
2022/12/27 01:08:40;;;;;;;22.70;9.55;;;;;;;8.07;86.00;98426.62;1670633;83;28322;-63
2022/12/27 01:11:08;;;;;;;16.80;8.13;;;;;;;8.10;85.90;98426.56;1670113;83;25572;-67
2022/12/27 01:13:35;;;;;;;15.55;7.47;;;;;;;8.07;85.92;98425.27;1663628;84;25731;-66
2022/12/27 01:16:01;;;;;;;15.05;7.00;;;;;;;8.04;85.98;98423.14;1680751;84;25961;-67
2022/12/27 01:18:27;;;;;;;14.15;6.55;;;;;;;7.98;86.14;98426.53;1696803;84;25609;-65
2022/12/27 01:20:54;;;;;;;19.40;8.20;;;;;;;7.96;86.20;98434.20;1680338;84;28292;-63
2022/12/27 01:23:20;;;;;;;19.32;8.28;;;;;;;7.95;86.20;98433.13;1680296;84;26981;-65
2022/12/27 01:25:46;;;;;;;14.60;6.75;;;;;;;7.97;86.15;98447.30;1657421;84;25520;-65
2022/12/27 01:28:12;;;;;;;18.17;8.40;;;;;;;7.95;86.13;98439.41;1680600;84;25712;-66
2022/12/27 01:30:38;;;;;;;18.48;7.35;;;;;;;7.96;86.11;98433.38;1680237;84;25465;-64
2022/12/27 01:33:05;;;;;;;15.23;7.90;;;;;;;7.98;85.90;98447.54;1680521;84;27169;-66
2022/12/27 01:35:31;;;;;;;14.93;7.55;;;;;;;8.00;85.88;98446.69;1680531;84;25741;-66
2022/12/27 01:37:57;;;;;;;11.90;6.78;;;;;;;7.99;85.91;98446.42;1657764;84;25487;-66
2022/12/27 01:40:28;;;;;;;12.23;6.85;;;;;;;7.96;85.97;98451.11;1696797;84;25760;-66
2022/12/27 01:42:59;;;;;;;14.73;8.35;;;;;;;7.96;86.01;98458.75;1657236;84;25787;-66
2022/12/27 01:45:34;;;;;;;11.10;6.70;;;;;;;7.95;85.99;98455.78;1696994;84;26817;-66
2022/12/27 01:48:22;;;;;;;18.02;8.48;;;;;;;7.96;85.95;98458.75;1680215;84;25734;-66
2022/12/27 01:50:56;;;;;;;14.10;7.20;;;;;;;7.97;85.94;98473.22;1680276;84;25580;-66
2022/12/27 01:53:29;;;;;;;13.83;7.03;;;;;;;7.99;85.79;98466.34;1696389;84;27588;-66
2022/12/27 01:56:09;;;;;;;12.18;6.08;;;;;;;8.01;85.77;98466.04;1680261;84;25680;-67
2022/12/27 01:59:02;;;;;;;13.00;6.80;;;;;;;8.00;85.84;98478.08;1657342;84;28118;-63
2022/12/27 02:01:42;;;;;;;15.58;7.70;;;;;;;7.98;85.93;98483.02;1680377;84;25646;-66
2022/12/27 02:04:18;;;;;;;14.47;7.53;;;;;;;7.95;86.01;98494.53;1680381;84;25581;-67
2022/12/27 02:06:46;;;;;;;17.02;8.40;;;;;;;7.91;86.27;98506.04;1696723;84;26310;-67
2022/12/27 02:09:30;;;;;;;11.75;6.90;;;;;;;7.87;86.63;98505.58;1680454;84;25628;-65
2022/12/27 02:12:00;;;;;;;14.47;8.25;;;;;;;7.85;86.88;98510.51;1680457;84;27357;-67
2022/12/27 02:14:34;;;;;;;12.45;7.15;;;;;;;7.82;87.09;98501.02;1690904;83;25763;-67
2022/12/27 02:17:04;;;;;;;11.15;7.92;;;;;;;7.82;86.92;98502.38;1672149;83;25864;-67
2022/12/27 02:20:03;;;;;;;9.43;5.97;;;;;;;7.80;87.08;98511.41;1670726;83;25463;-67
2022/12/27 02:26:08;;;;;;;11.40;6.22;;;;;;;7.77;87.03;98517.45;1720762;83;25756;-67
2022/12/27 02:28:51;;;;;;;17.67;9.45;;;;;;;7.73;86.94;98524.63;1720693;82;25718;-66
2022/12/27 02:31:23;;;;;;;12.73;6.95;;;;;;;7.72;86.93;98524.38;1694495;83;25428;-67
2022/12/27 02:33:52;;;;;;;11.43;6.65;;;;;;;7.69;86.83;98527.16;1692619;83;25744;-68
2022/12/27 02:36:23;;;;;;;9.53;5.80;;;;;;;7.64;86.77;98533.50;1694511;83;25447;-67
2022/12/27 02:38:54;;;;;;;7.85;5.50;;;;;;;7.60;86.90;98537.91;1694405;83;27858;-68
2022/12/27 02:53:03;;;;;;;8.58;5.67;;;;;;;7.60;87.41;98556.20;1698417;83;27521;-67
2022/12/27 02:58:42;;;;;;;15.72;8.50;;;;;;;7.56;88.06;98551.89;1659551;86;25833;-69
2022/12/27 03:04:58;;;;;;;9.75;6.28;;;;;;;7.47;88.71;98580.38;1660062;85;25558;-66
2022/12/27 03:07:58;;;;;;;14.00;8.00;;;;;;;7.40;89.12;98576.66;1660232;86;27355;-68
2022/12/27 03:16:54;;;;;;;13.10;7.47;;;;;;;7.21;89.71;98579.92;1665318;85;25801;-68
2022/12/27 03:25:28;;;;;;;11.38;6.58;;;;;;;7.14;90.47;98574.84;1627881;86;25775;-68
2022/12/27 03:33:49;;;;;;;20.10;10.68;;;;;;;7.14;90.03;98598.02;1665179;85;25446;-69
2022/12/27 03:39:19;;;;;;;16.40;8.90;;;;;;;7.16;89.93;98603.96;1721300;83;25750;-69
2022/12/27 03:44:38;;;;;;;8.28;4.60;;;;;;;7.13;90.05;98622.27;1721218;83;25464;-69
2022/12/27 03:47:31;;;;;;;7.12;4.75;;;;;;;7.06;90.13;98649.06;1694717;83;25606;-64
2022/12/27 03:50:24;;;;;;;7.12;4.30;;;;;;;7.07;90.38;98644.68;1667810;86;26939;-69
2022/12/27 03:53:10;;;;;;;7.78;5.25;;;;;;;7.06;90.59;98640.88;1667937;86;25990;-68
2022/12/27 03:55:37;;;;;;;6.20;4.12;;;;;;;6.98;90.54;98672.30;1639410;87;25730;-66
2022/12/27 03:58:04;;;;;;;4.65;3.50;;;;;;;6.78;88.79;98674.97;1645429;86;25634;-68
2022/12/27 04:00:31;;;;;;;3.33;2.30;;;;;;;6.58;89.61;98687.41;1596304;87;25566;-68
2022/12/27 04:02:57;;;;;;;1.95;1.40;;;;;;;6.43;90.38;98681.02;1645485;86;27616;-67
2022/12/27 04:05:23;;;;;;;1.35;1.00;;;;;;;6.30;90.58;98699.36;1623583;86;25506;-66
2022/12/27 04:35:18;;;;;;;1.10;1.00;;;;;;;5.06;89.78;98776.31;1690645;83;25676;-69
2022/12/27 04:37:44;;;;;;;2.55;1.27;;;;;;;4.96;89.96;98771.16;1711306;83;25682;-68
2022/12/27 04:56:44;;;;;;;1.62;1.05;;;;;;;4.66;90.21;98795.06;1690608;83;27454;-68
2022/12/27 05:02:04;;;;;;;2.47;1.20;;;;;;;4.58;90.31;98795.06;1690556;83;25508;-67
2022/12/27 05:04:34;;;;;;;1.82;0.90;;;;;;;4.55;90.48;98796.95;1688662;83;25680;-69
2022/12/27 05:13:58;;;;;;;2.60;1.10;;;;;;;4.51;90.63;98804.28;1685414;83;25686;-68
2022/12/27 05:14:58;;;;;;;1.75;1.10;;;;;;;4.37;90.68;98824.86;1691961;82;25441;-69
2022/12/27 05:17:25;;;;;;;1.15;0.80;;;;;;;4.35;90.74;98827.05;1696524;82;25421;-68
2022/12/27 05:19:51;;;;;;;0.93;0.75;;;;;;;4.34;90.52;98831.66;1698080;82;25491;-68
2022/12/27 05:27:34;;;;;;;2.17;1.20;;;;;;;4.30;90.53;98863.13;1679793;85;25801;-68
2022/12/27 05:30:00;;;;;;;2.10;1.20;;;;;;;4.30;90.35;98857.70;1681788;85;25745;-69
2022/12/27 05:32:26;;;;;;;1.72;1.15;;;;;;;4.30;90.39;98860.94;1658540;85;25504;-68
2022/12/27 05:34:52;;;;;;;1.85;1.22;;;;;;;4.26;90.58;98864.75;1658721;85;27458;-68
2022/12/27 05:37:19;;;;;;;2.08;1.37;;;;;;;4.22;90.52;98879.91;1681544;85;25550;-64
2022/12/27 05:39:45;;;;;;;2.67;1.30;;;;;;;4.14;91.16;98895.62;1627448;85;25749;-68
2022/12/27 05:42:12;;;;;;;3.12;1.70;;;;;;;4.11;91.36;98900.75;1649673;85;25780;-68
2022/12/27 05:44:38;;;;;;;4.65;2.02;;;;;;;4.09;91.49;98902.36;1658358;85;25782;-67
2022/12/27 05:47:04;;;;;;;3.62;2.10;;;;;;;4.09;91.56;98907.00;1658587;85;27565;-69
2022/12/27 05:49:30;;;;;;;3.47;2.10;;;;;;;4.10;91.52;98909.44;1681602;85;25752;-68
2022/12/27 05:51:57;;;;;;;3.12;1.90;;;;;;;4.12;91.60;98922.18;1649753;85;25740;-65
2022/12/27 05:54:23;;;;;;;3.92;2.02;;;;;;;4.09;91.51;98919.99;1658444;85;26165;-69
2022/12/27 05:56:49;;;;;;;2.27;1.50;;;;;;;4.13;91.33;98922.48;1636265;85;25676;-69
2022/12/27 05:59:15;;;;;;;4.70;1.90;;;;;;;4.13;91.36;98929.78;1658251;85;27500;-69
2022/12/27 06:01:42;;;;;;;4.22;1.80;;;;;;;4.10;90.86;98935.73;1618019;85;25961;-67
2022/12/27 06:04:09;;;;;;;1.92;1.40;;;;;;;4.11;90.65;98947.69;1623554;82;25519;-68
2022/12/27 06:06:36;;;;;;;3.75;1.42;;;;;;;4.09;90.40;98960.68;1691269;82;25684;-69
2022/12/27 06:09:02;;;;;;;3.37;1.50;;;;;;;4.02;90.16;98960.11;1721707;82;25746;-68
2022/12/27 06:11:28;;;;;;;2.75;1.70;;;;;;;3.99;90.23;98965.52;1721714;82;27446;-67
2022/12/27 06:13:55;;;;;;;1.72;1.40;;;;;;;3.95;90.16;98979.87;1697185;82;25453;-69
2022/12/27 06:16:22;;;;;;;2.95;1.90;;;;;;;3.88;90.02;98974.66;1684081;84;25430;-69
2022/12/27 06:18:48;;;;;;;2.98;1.98;;;;;;;3.86;90.25;98983.61;1689134;82;25662;-69
2022/12/27 06:21:18;;;;;;;4.37;1.80;;;;;;;3.82;90.31;98981.95;1714528;82;25645;-68
2022/12/27 06:23:45;;;;;;;3.00;1.70;;;;;;;3.79;90.19;98987.89;1737448;82;28166;-65
2022/12/27 06:26:23;;;;;;;3.85;1.75;;;;;;;3.76;90.21;98990.59;1714296;82;25905;-70
2022/12/27 06:28:50;;;;;;;4.05;1.75;;;;;;;3.75;90.08;98998.98;1705203;84;25412;-70
2022/12/27 06:31:18;;;;;;;1.35;1.20;;;;;;;3.73;90.43;99001.95;1714488;82;26292;-69
2022/12/27 06:33:46;;;;;;;4.75;1.40;;;;;;;3.71;89.92;99014.14;1737668;82;25576;-69
2022/12/27 06:36:16;;;;;;;3.25;1.60;;;;;;;3.72;89.82;99013.06;1714665;82;27323;-70
2022/12/27 06:38:43;;;;;;;3.37;1.70;;;;;;;3.73;89.75;99018.75;1684178;84;25852;-69
2022/12/27 06:41:13;;;;;;;4.75;1.42;;;;;;;3.70;89.57;99031.47;1661547;83;25809;-70
2022/12/27 06:43:40;;;;;;;4.77;1.60;;;;;;;3.65;89.66;99026.82;1702125;82;26236;-69
2022/12/27 06:46:14;;;;;;;1.72;1.30;;;;;;;3.60;89.26;99047.92;1701454;82;25505;-64
2022/12/27 06:48:40;;;;;;;5.08;1.62;;;;;;;3.57;89.19;99057.92;1725531;82;28200;-69
2022/12/27 06:51:10;;;;;;;6.05;1.70;;;;;;;3.50;89.18;99073.05;1725396;82;25468;-69
2022/12/27 06:53:36;;;;;;;2.65;1.40;;;;;;;3.44;89.16;99075.42;1701432;82;25467;-69
2022/12/27 06:56:06;;;;;;;3.83;2.15;;;;;;;3.39;88.98;99080.78;1725001;82;25808;-69
2022/12/27 06:58:33;;;;;;;4.03;2.20;;;;;;;3.36;89.09;99079.41;1750048;82;25694;-69
2022/12/27 07:01:20;;;;;;;6.42;1.70;;;;;;;3.33;89.02;99085.34;1701068;82;27494;-69
2022/12/27 07:03:54;;;;;;;3.22;1.95;;;;;;;3.28;88.86;99092.60;1725080;82;25886;-70
2022/12/27 07:06:22;;;;;;;5.55;2.05;;;;;;;3.27;88.91;99089.06;1749729;81;25702;-66
2022/12/27 07:08:48;;;;;;;4.97;1.77;;;;;;;3.24;88.66;99099.88;1677886;81;26261;-64
2022/12/27 07:11:17;;;;;;;5.37;1.20;;;;;;;3.22;88.44;99106.08;1719174;80;25191;-69
2022/12/27 07:13:47;;;;;;;5.28;1.75;;;;;;;3.18;88.23;99110.38;1722633;80;27543;-67
2022/12/27 07:16:19;;;;;;;4.10;1.85;;;;;;;3.10;88.08;99117.05;1714097;81;25674;-70
2022/12/27 07:18:45;;;;;;;3.02;1.40;;;;;;;3.05;88.04;99131.07;1700643;82;25690;-70
2022/12/27 07:21:17;;;;;;;7.30;2.20;;;;;;;3.05;88.43;99143.26;1716124;82;25725;-69
2022/12/27 07:23:43;;;;;;;4.35;1.98;;;;;;;3.01;88.42;99149.70;1744089;82;25564;-70
2022/12/27 07:26:15;;;;;;;7.05;1.82;;;;;;;2.99;88.54;99161.30;1693065;82;27590;-71
2022/12/27 07:28:42;;;;;;;5.22;1.92;;;;;;;2.98;88.67;99162.38;1736997;80;25677;-65
2022/12/27 07:31:12;;;;;;;7.10;2.20;;;;;;;3.00;88.36;99162.41;1717443;80;25494;-71
2022/12/27 07:33:38;;;;;;;7.67;2.90;;;;;;;3.03;88.53;99166.52;1747861;80;25783;-68
2022/12/27 07:36:10;;;;;;;8.80;3.22;;;;;;;3.07;88.61;99172.23;1718722;80;25780;-66
2022/12/27 07:38:36;;;;;;;5.28;2.52;;;;;;;3.10;88.39;99177.98;1694847;81;28137;-69
2022/12/27 07:41:03;;;;;;;6.78;2.25;;;;;;;3.10;87.97;99186.11;1708076;81;26703;-70
2022/12/27 07:43:34;;;;;;;4.92;2.35;;;;;;;3.14;87.89;99194.00;1738670;81;25445;-65
2022/12/27 07:46:14;;;;;;;7.55;3.10;;;;;;;3.20;87.93;99194.08;1697119;82;25707;-64
2022/12/27 07:48:41;;;;;;;7.00;2.85;;;;;;;3.24;87.90;99196.04;1673720;82;25711;-63
2022/12/27 07:51:08;;;;;;;7.47;3.35;;;;;;;3.24;87.10;99195.21;1736819;80;27466;-69
2022/12/27 07:53:35;;;;;;;8.25;2.75;;;;;;;3.24;87.33;99202.81;1722446;80;25463;-65
2022/12/27 07:56:14;;;;;;;7.75;2.85;;;;;;;3.21;87.03;99197.89;1715110;81;25514;-67
2022/12/27 07:58:44;;;;;;;13.32;3.98;;;;;;;3.21;87.13;99209.25;1731937;81;26026;-64
2022/12/27 08:01:12;;;;;;;8.35;2.87;;;;;;;3.19;87.29;99212.77;1708467;81;25700;-66
2022/12/27 08:03:40;;;;;;;6.97;2.77;;;;;;;3.19;87.54;99206.00;1707796;81;27303;-71
2022/12/27 08:06:10;;;;;;;7.53;2.92;;;;;;;3.21;87.17;99218.21;1707669;81;26733;-68
2022/12/27 08:08:43;;;;;;;10.05;3.22;;;;;;;3.30;86.83;99223.17;1741499;80;25681;-70
2022/12/27 08:11:09;;;;;;;9.13;3.33;;;;;;;3.38;86.40;99230.35;1746883;80;25665;-70
2022/12/27 08:13:36;;;;;;;12.85;4.53;;;;;;;3.43;85.90;99234.19;1722114;80;25592;-70
2022/12/27 08:16:04;;;;;;;9.18;4.15;;;;;;;3.48;86.04;99233.70;1739618;81;27368;-67
2022/12/27 08:18:31;;;;;;;10.45;4.67;;;;;;;3.51;85.68;99247.28;1737921;81;25469;-71
2022/12/27 08:20:57;;;;;;;10.82;5.05;;;;;;;3.50;84.53;99245.65;1738187;81;25747;-68
2022/12/27 08:23:23;;;;;;;11.05;3.77;;;;;;;3.51;84.73;99247.28;1713492;81;25446;-69
2022/12/27 08:25:50;;;;;;;10.50;4.20;;;;;;;3.49;84.19;99248.88;1737987;81;25513;-71
2022/12/27 08:28:18;;;;;;;10.82;3.80;;;;;;;3.42;83.63;99249.62;1737655;81;27522;-67
2022/12/27 08:30:45;;;;;;;9.83;3.27;;;;;;;3.37;83.80;99254.98;1737787;81;25486;-68
2022/12/27 08:33:14;;;;;;;9.35;3.60;;;;;;;3.30;82.86;99262.45;1732026;81;25702;-68
2022/12/27 08:35:43;;;;;;;10.68;3.83;;;;;;;3.20;83.14;99259.89;1713238;81;25962;-70
2022/12/27 08:38:09;;;;;;;12.65;3.87;;;;;;;3.18;83.92;99275.59;1738325;81;26414;-68
2022/12/27 08:40:42;;;;;;;11.80;3.65;;;;;;;3.11;82.97;99268.18;1737615;81;27392;-66
2022/12/27 08:43:09;;;;;;;10.72;3.27;;;;;;;3.11;83.40;99275.75;1736507;81;25793;-65
2022/12/27 08:45:38;;;;;;;6.97;3.22;;;;;;;3.11;83.26;99275.75;1711837;81;25688;-68
2022/12/27 08:48:06;;;;;;;7.30;3.08;;;;;;;3.17;83.37;99287.50;1737722;81;25754;-65
2022/12/27 08:50:32;;;;;;;12.82;3.05;;;;;;;3.28;83.41;99292.50;1757254;80;25639;-68
2022/12/27 08:53:01;;;;;;;8.20;3.27;;;;;;;3.35;83.01;99299.94;1724274;81;27380;-68
2022/12/27 08:55:29;;;;;;;10.03;3.55;;;;;;;3.51;83.18;99300.13;1719927;81;25507;-68
2022/12/27 08:58:01;;;;;;;11.03;4.58;;;;;;;3.69;83.08;99298.19;1713453;81;25740;-67
2022/12/27 09:00:29;;;;;;;10.00;5.30;;;;;;;3.83;82.24;99297.28;1693416;82;25397;-68
2022/12/27 09:02:56;;;;;;;12.35;4.60;;;;;;;4.03;81.35;99296.67;1679910;84;25464;-68
2022/12/27 09:05:25;;;;;;;11.90;3.22;;;;;;;4.21;80.97;99301.48;1712981;81;27336;-65
2022/12/27 09:07:51;;;;;;;7.97;3.62;;;;;;;4.34;80.66;99303.79;1732428;81;25591;-68
2022/12/27 09:10:19;;;;;;;8.88;3.20;;;;;;;4.38;79.76;99308.98;1714459;81;25436;-67
2022/12/27 09:12:46;;;;;;;5.50;2.87;;;;;;;4.47;79.66;99307.17;1713755;81;25639;-65
2022/12/27 09:15:13;;;;;;;5.70;2.55;;;;;;;4.55;78.50;99300.45;1715797;81;25475;-67
2022/12/27 09:17:40;;;;;;;7.15;2.25;;;;;;;4.55;77.76;99294.47;1717854;81;29058;-67
2022/12/27 09:20:08;;;;;;;6.47;2.40;;;;;;;4.62;76.73;99292.38;1717525;81;25869;-68
2022/12/27 09:22:35;;;;;;;10.43;2.45;;;;;;;4.73;77.52;99300.08;1717646;81;25648;-67
2022/12/27 09:25:01;;;;;;;7.87;2.50;;;;;;;4.83;76.29;99298.50;1717418;81;25760;-68
2022/12/27 09:27:28;;;;;;;8.40;3.05;;;;;;;4.97;75.47;99292.09;1717392;81;25654;-67
2022/12/27 09:29:54;;;;;;;7.00;2.75;;;;;;;5.14;76.36;99296.02;1740943;81;27114;-68
2022/12/27 09:32:21;;;;;;;14.33;6.00;;;;;;;5.28;75.59;99296.38;1717186;81;27019;-68
2022/12/27 09:34:47;;;;;;;7.72;2.80;;;;;;;5.56;74.92;99311.20;1717615;81;25658;-65
2022/12/27 09:37:14;;;;;;;7.30;3.35;;;;;;;5.76;73.62;99305.05;1741702;81;25520;-67
2022/12/27 09:39:40;;;;;;;6.60;2.70;;;;;;;5.93;72.70;99303.46;1729069;82;25419;-67
2022/12/27 09:42:45;;;;;;;6.30;2.40;;;;;;;6.11;71.00;99299.49;1716887;81;27475;-66
2022/12/27 09:45:17;;;;;;;4.83;1.85;;;;;;;6.28;71.14;99306.05;1735127;81;27235;-65
2022/12/27 09:48:00;;;;;;;5.05;1.87;;;;;;;6.31;67.09;99299.80;1725150;81;25671;-65
2022/12/27 09:50:55;;;;;;;6.92;1.92;;;;;;;6.37;69.89;99300.08;1724605;81;25617;-65
2022/12/27 09:53:32;;;;;;;5.37;2.22;;;;;;;6.53;70.69;99301.73;1726439;81;25517;-66
2022/12/27 09:55:59;;;;;;;7.17;1.77;;;;;;;6.68;67.36;99294.64;1747275;81;27379;-66
2022/12/27 09:58:40;;;;;;;3.85;2.02;;;;;;;6.88;64.95;99299.28;1726355;82;25506;-67
2022/12/27 10:01:28;;;;;;;;;;;;;;;7.00;66.00;99296.27;1738387;81;25434;-66
2022/12/27 10:03:54;;;;;;;4.22;1.80;;;;;;;7.34;63.86;99288.61;1738373;80;26565;-66
2022/12/27 10:06:54;;;;;;;4.12;1.75;;;;;;;7.69;64.29;99286.03;1708453;81;25494;-66
2022/12/27 10:09:43;;;;;;;4.08;2.17;;;;;;;7.94;62.14;99278.84;1761105;81;27455;-65
2022/12/27 10:12:24;;;;;;;3.77;1.90;;;;;;;8.29;61.05;99286.53;1760917;81;25649;-66
2022/12/27 10:15:23;;;;;;;6.05;2.60;;;;;;;8.58;61.78;99275.45;1747148;80;25640;-66
2022/12/27 10:18:04;;;;;;;7.22;2.05;;;;;;;8.72;60.47;99277.79;1737716;81;25985;-65
2022/12/27 10:20:36;;;;;;;7.55;2.50;;;;;;;8.72;60.10;99281.89;1737353;81;25512;-66
2022/12/27 10:23:08;;;;;;;5.42;2.27;;;;;;;8.62;60.03;99282.80;1736809;81;27429;-65
2022/12/27 10:25:37;;;;;;;5.83;2.35;;;;;;;8.66;59.07;99285.76;1761176;80;25646;-67
2022/12/27 10:28:17;;;;;;;8.45;2.90;;;;;;;8.65;60.09;99289.06;1739745;81;25748;-65
2022/12/27 10:30:44;;;;;;;11.63;4.22;;;;;;;8.76;58.31;99287.61;1719061;82;25754;-66
2022/12/27 10:33:21;;;;;;;11.45;4.17;;;;;;;8.93;60.68;99289.93;1710201;81;25706;-67
2022/12/27 10:35:48;;;;;;;11.85;5.78;;;;;;;9.03;57.69;99292.56;1712719;82;27310;-66
2022/12/27 10:38:15;;;;;;;10.20;4.00;;;;;;;9.24;59.71;99295.09;1727146;82;25470;-64
2022/12/27 10:41:09;;;;;;;11.33;5.10;;;;;;;9.50;58.71;99292.08;1730083;82;25435;-67
2022/12/27 10:43:40;;;;;;;7.85;3.50;;;;;;;9.68;57.11;99299.83;1710885;82;25576;-66
2022/12/27 10:46:19;;;;;;;10.20;4.28;;;;;;;9.78;55.71;99299.16;1716716;82;25662;-65
2022/12/27 10:48:59;;;;;;;8.25;3.50;;;;;;;9.82;56.34;99309.52;1678154;82;27254;-67
2022/12/27 10:51:39;;;;;;;11.35;5.62;;;;;;;9.82;56.33;99311.71;1697572;82;25705;-67
2022/12/27 10:54:15;;;;;;;19.82;9.98;;;;;;;10.36;54.62;99310.73;1699177;83;25453;-67
2022/12/27 10:56:46;;;;;;;11.70;6.83;;;;;;;10.36;54.62;99310.73;1670923;85;26134;-62
2022/12/27 10:59:20;;;;;;;13.75;7.33;;;;;;;10.70;58.08;99306.95;1698601;82;25600;-67
2022/12/27 11:02:04;;;;;;;11.68;6.40;;;;;;;11.13;54.48;99307.88;1660710;84;27262;-66
2022/12/27 11:04:32;;;;;;;12.45;7.30;;;;;;;11.14;52.65;99306.80;1708881;82;25852;-67
2022/12/27 11:07:04;;;;;;;17.50;9.50;;;;;;;11.15;54.09;99302.92;1716129;82;25804;-67
2022/12/27 11:09:34;;;;;;;7.35;4.12;;;;;;;11.38;55.03;99303.88;1694354;83;25833;-67
2022/12/27 11:12:24;;;;;;;12.55;6.53;;;;;;;11.64;51.98;99294.33;1683789;83;25547;-67
2022/12/27 11:14:56;;;;;;;14.13;6.40;;;;;;;11.82;53.16;99291.22;1729796;82;27394;-68
2022/12/27 11:17:31;;;;;;;9.25;5.35;;;;;;;12.06;53.45;99284.66;1741365;81;25709;-66
2022/12/27 11:20:02;;;;;;;7.50;3.83;;;;;;;12.13;50.48;99281.54;1716167;81;25644;-66
2022/12/27 11:22:29;;;;;;;9.40;4.87;;;;;;;12.14;51.70;99278.48;1744032;81;25871;-68
2022/12/27 11:24:59;;;;;;;4.53;2.20;;;;;;;11.99;49.34;99285.65;1711686;82;25507;-68
2022/12/27 11:27:29;;;;;;;2.90;1.90;;;;;;;11.76;49.17;99286.95;1721785;81;27616;-68
2022/12/27 11:29:58;;;;;;;4.90;2.70;;;;;;;11.50;45.95;99295.14;1723939;82;25973;-67
2022/12/27 11:32:25;;;;;;;4.72;2.35;;;;;;;11.27;46.91;99295.57;1692737;81;25633;-67
2022/12/27 11:34:56;;;;;;;4.28;1.72;;;;;;;11.24;45.01;99294.80;1750324;80;25629;-68
2022/12/27 11:37:26;;;;;;;4.30;1.72;;;;;;;11.04;44.97;99288.02;1707645;81;25643;-68
2022/12/27 11:40:34;;;;;;;4.17;2.20;;;;;;;10.97;44.47;99301.29;1758396;80;27486;-67
2022/12/27 11:43:10;;;;;;;4.12;1.70;;;;;;;11.09;44.26;99293.98;1753301;81;25754;-68
2022/12/27 11:45:46;;;;;;;3.22;2.00;;;;;;;11.14;44.07;99293.08;1733151;80;25724;-67
2022/12/27 11:48:36;;;;;;;4.85;1.47;;;;;;;11.42;44.96;99293.92;1771899;80;25451;-67
2022/12/27 11:51:28;;;;;;;4.03;1.77;;;;;;;11.48;43.36;99300.66;1778650;80;25633;-68
2022/12/27 11:54:01;;;;;;;4.12;1.50;;;;;;;11.37;43.77;99300.07;1728315;81;27421;-67
2022/12/27 11:56:34;;;;;;;4.42;2.00;;;;;;;11.35;43.78;99314.09;1732026;81;25832;-67
2022/12/27 11:59:35;;;;;;;4.15;2.08;;;;;;;11.28;43.71;99308.98;1706644;82;25477;-68
2022/12/27 12:02:40;;;;;;;6.25;3.72;;;;;;;11.04;44.49;99307.77;1715577;81;25687;-68
2022/12/27 12:05:30;;;;;;;3.37;2.17;;;;;;;11.22;45.89;99304.70;1740286;81;25625;-68
2022/12/27 12:08:08;;;;;;;4.73;3.17;;;;;;;11.54;44.58;99298.90;1710142;81;28011;-68
2022/12/27 12:11:05;;;;;;;3.60;1.50;;;;;;;11.63;44.90;99304.48;1718702;81;25535;-65
2022/12/27 12:14:06;;;;;;;2.85;1.40;;;;;;;11.37;44.16;99304.98;1737917;81;25498;-69
2022/12/27 12:16:57;;;;;;;4.03;2.10;;;;;;;10.76;43.63;99309.05;1709028;82;25629;-69
2022/12/27 12:19:44;;;;;;;4.65;2.17;;;;;;;10.40;46.33;99315.87;1679534;83;25731;-65
2022/12/27 12:22:34;;;;;;;3.62;2.20;;;;;;;10.03;47.28;99313.63;1703427;83;27314;-68
2022/12/27 12:25:39;;;;;;;4.10;2.30;;;;;;;9.69;46.73;99313.22;1722466;83;25966;-65
2022/12/27 12:28:33;;;;;;;4.17;2.00;;;;;;;9.31;47.86;99313.08;1720749;83;25727;-65
2022/12/27 12:31:40;;;;;;;3.45;1.80;;;;;;;8.87;48.94;99307.47;1723498;83;25545;-67
2022/12/27 12:34:32;;;;;;;3.02;2.08;;;;;;;8.54;49.44;99305.25;1720376;83;25670;-65
2022/12/27 12:37:25;;;;;;;4.85;1.60;;;;;;;8.19;49.58;99294.25;1723980;83;27765;-69
2022/12/27 12:40:12;;;;;;;2.60;1.67;;;;;;;7.90;50.31;99294.95;1696494;83;25751;-64
2022/12/27 12:43:07;;;;;;;6.75;2.90;;;;;;;7.70;51.02;99289.84;1686820;83;25520;-67
2022/12/27 12:45:39;;;;;;;3.42;2.08;;;;;;;7.58;52.40;99292.07;1719236;83;25495;-68
2022/12/27 12:48:41;;;;;;;4.47;2.30;;;;;;;7.71;52.43;99300.22;1723333;83;25758;-67
2022/12/27 12:51:34;;;;;;;6.17;2.27;;;;;;;7.86;52.12;99290.59;1684078;84;27415;-69
2022/12/27 12:54:18;;;;;;;4.78;2.60;;;;;;;8.01;53.08;99297.88;1663618;86;25657;-68
2022/12/27 12:57:15;;;;;;;4.75;2.40;;;;;;;8.12;52.79;99302.73;1679821;83;25730;-68
2022/12/27 13:00:11;;;;;;;6.05;2.30;;;;;;;8.29;52.54;99309.74;1723871;83;25613;-69
2022/12/27 13:03:15;;;;;;;7.95;2.90;;;;;;;8.41;52.09;99312.15;1667384;84;25719;-68
2022/12/27 13:05:59;;;;;;;10.65;5.55;;;;;;;8.56;51.84;99309.89;1692449;83;27258;-67
2022/12/27 13:08:40;;;;;;;5.40;2.47;;;;;;;8.89;51.86;99317.01;1662324;83;25701;-68
2022/12/27 13:11:26;;;;;;;3.62;2.00;;;;;;;9.03;50.87;99314.44;1708930;83;25616;-68
2022/12/27 13:14:22;;;;;;;2.98;1.67;;;;;;;9.13;51.11;99318.18;1692489;83;25666;-67
2022/12/27 13:17:20;;;;;;;4.67;2.15;;;;;;;9.20;50.56;99313.19;1693139;82;25994;-68
2022/12/27 13:20:07;;;;;;;3.27;1.60;;;;;;;9.15;49.74;99313.22;1717335;81;27683;-65
2022/12/27 13:23:03;;;;;;;6.03;1.85;;;;;;;9.15;50.02;99309.12;1714487;82;25724;-68
2022/12/27 13:25:41;;;;;;;4.80;1.82;;;;;;;9.20;49.80;99307.72;1735868;81;25430;-66
2022/12/27 13:28:53;;;;;;;2.98;1.52;;;;;;;9.26;49.73;99314.77;1717759;82;25743;-68
2022/12/27 13:31:41;;;;;;;4.67;2.15;;;;;;;9.23;49.61;99319.45;1629062;86;25871;-67
2022/12/27 13:34:31;;;;;;;4.40;1.98;;;;;;;9.27;49.86;99313.66;1620130;87;27025;-67
2022/12/27 13:37:14;;;;;;;4.05;1.75;;;;;;;9.48;50.57;99324.95;1660805;86;25796;-66
2022/12/27 13:40:08;;;;;;;3.92;1.90;;;;;;;9.26;49.44;99313.94;1642951;86;25591;-68
2022/12/27 13:43:06;;;;;;;3.12;1.87;;;;;;;9.26;49.44;99313.94;1634204;86;25591;-67
2022/12/27 13:45:55;;;;;;;3.60;2.02;;;;;;;8.86;49.34;99323.59;1613905;86;25513;-67
2022/12/27 13:48:42;;;;;;;4.87;2.10;;;;;;;8.50;50.80;99328.75;1640307;86;27524;-68
2022/12/27 13:51:19;;;;;;;3.77;1.92;;;;;;;8.07;51.45;99335.55;1642597;86;25878;-67
2022/12/27 13:54:24;;;;;;;5.60;2.12;;;;;;;7.69;52.34;99337.33;1641665;86;25560;-67
2022/12/27 13:57:15;;;;;;;6.37;2.20;;;;;;;7.38;52.94;99340.95;1589484;89;25762;-68